sensor_id;sensor_type;location;lat;lon;timestamp;noise_LAeq;noise_LA_min;noise_LA_max;noise_LA01;noise_LA95
66274;Laerm;58450;52.150;4.466;2023-01-05T00:01:35;59.66;45.25;80.41;;
66274;Laerm;58450;52.150;4.466;2023-01-05T00:04:04;60.57;46.13;75.83;;
66274;Laerm;58450;52.150;4.466;2023-01-05T00:06:32;62.17;49.33;80.74;;
66274;Laerm;58450;52.150;4.466;2023-01-05T00:09:00;61.27;47.11;77.74;;
66274;Laerm;58450;52.150;4.466;2023-01-05T00:11:27;56.80;44.19;70.56;;
66274;Laerm;58450;52.150;4.466;2023-01-05T00:14:14;58.89;44.56;78.56;;
66274;Laerm;58450;52.150;4.466;2023-01-05T00:17:01;63.34;46.12;81.76;;
66274;Laerm;58450;52.150;4.466;2023-01-05T00:19:46;61.61;45.07;80.59;;
66274;Laerm;58450;52.150;4.466;2023-01-05T00:22:37;59.51;45.24;81.93;;
66274;Laerm;58450;52.150;4.466;2023-01-05T00:25:09;58.66;44.55;75.45;;
66274;Laerm;58450;52.150;4.466;2023-01-05T00:27:37;60.61;45.38;78.10;;
66274;Laerm;58450;52.150;4.466;2023-01-05T00:30:06;62.37;47.31;77.84;;
66274;Laerm;58450;52.150;4.466;2023-01-05T00:32:35;58.28;47.26;74.27;;
66274;Laerm;58450;52.150;4.466;2023-01-05T00:35:03;60.86;47.06;78.23;;
66274;Laerm;58450;52.150;4.466;2023-01-05T00:37:33;58.59;45.34;73.18;;
66274;Laerm;58450;52.150;4.466;2023-01-05T00:40:01;62.86;42.98;85.00;;
66274;Laerm;58450;52.150;4.466;2023-01-05T00:42:29;62.01;47.71;80.09;;
66274;Laerm;58450;52.150;4.466;2023-01-05T00:44:56;63.69;46.22;79.93;;
66274;Laerm;58450;52.150;4.466;2023-01-05T00:47:24;61.46;48.51;75.98;;
66274;Laerm;58450;52.150;4.466;2023-01-05T00:49:53;58.76;45.68;75.50;;
66274;Laerm;58450;52.150;4.466;2023-01-05T00:52:20;58.18;45.54;74.87;;
66274;Laerm;58450;52.150;4.466;2023-01-05T00:54:48;60.46;45.31;77.89;;
66274;Laerm;58450;52.150;4.466;2023-01-05T00:57:15;63.85;49.08;81.84;;
66274;Laerm;58450;52.150;4.466;2023-01-05T00:59:43;59.52;46.18;78.89;;
66274;Laerm;58450;52.150;4.466;2023-01-05T01:02:11;59.45;45.29;76.57;;
66274;Laerm;58450;52.150;4.466;2023-01-05T01:04:38;56.42;48.42;70.63;;
66274;Laerm;58450;52.150;4.466;2023-01-05T01:07:07;58.86;44.46;73.89;;
66274;Laerm;58450;52.150;4.466;2023-01-05T01:09:35;62.42;51.52;77.02;;
66274;Laerm;58450;52.150;4.466;2023-01-05T01:12:03;59.65;46.28;80.73;;
66274;Laerm;58450;52.150;4.466;2023-01-05T01:14:31;59.76;43.27;80.89;;
66274;Laerm;58450;52.150;4.466;2023-01-05T01:16:58;59.14;45.31;74.42;;
66274;Laerm;58450;52.150;4.466;2023-01-05T01:19:26;63.02;48.34;78.83;;
66274;Laerm;58450;52.150;4.466;2023-01-05T01:21:54;61.53;48.61;77.08;;
66274;Laerm;58450;52.150;4.466;2023-01-05T01:24:26;65.38;49.21;88.23;;
66274;Laerm;58450;52.150;4.466;2023-01-05T01:26:55;64.78;49.51;82.16;;
66274;Laerm;58450;52.150;4.466;2023-01-05T01:29:23;61.36;50.45;80.41;;
66274;Laerm;58450;52.150;4.466;2023-01-05T01:31:52;62.82;43.37;79.08;;
66274;Laerm;58450;52.150;4.466;2023-01-05T01:34:20;60.56;44.45;80.33;;
66274;Laerm;58450;52.150;4.466;2023-01-05T01:36:48;55.19;42.78;78.01;;
66274;Laerm;58450;52.150;4.466;2023-01-05T01:39:16;51.34;42.14;63.78;;
66274;Laerm;58450;52.150;4.466;2023-01-05T01:41:45;50.17;41.40;65.39;;
66274;Laerm;58450;52.150;4.466;2023-01-05T01:44:48;51.79;41.82;66.78;;
66274;Laerm;58450;52.150;4.466;2023-01-05T01:47:27;53.83;42.47;73.09;;
66274;Laerm;58450;52.150;4.466;2023-01-05T01:50:02;58.70;45.64;75.68;;
66274;Laerm;58450;52.150;4.466;2023-01-05T01:52:32;61.42;46.09;80.88;;
66274;Laerm;58450;52.150;4.466;2023-01-05T01:55:03;59.77;43.39;75.25;;
66274;Laerm;58450;52.150;4.466;2023-01-05T01:57:34;57.94;43.57;77.06;;
66274;Laerm;58450;52.150;4.466;2023-01-05T02:00:07;61.66;48.58;84.09;;
66274;Laerm;58450;52.150;4.466;2023-01-05T02:02:35;59.69;49.39;75.90;;
66274;Laerm;58450;52.150;4.466;2023-01-05T02:05:10;60.57;47.90;83.09;;
66274;Laerm;58450;52.150;4.466;2023-01-05T02:07:45;56.88;45.92;73.89;;
66274;Laerm;58450;52.150;4.466;2023-01-05T02:10:17;57.60;44.60;73.62;;
66274;Laerm;58450;52.150;4.466;2023-01-05T02:13:08;57.58;45.11;74.96;;
66274;Laerm;58450;52.150;4.466;2023-01-05T02:15:49;61.80;49.60;79.51;;
66274;Laerm;58450;52.150;4.466;2023-01-05T02:18:37;54.55;42.50;71.14;;
66274;Laerm;58450;52.150;4.466;2023-01-05T02:21:26;57.49;46.94;69.54;;
66274;Laerm;58450;52.150;4.466;2023-01-05T02:27:36;56.51;41.88;71.12;;
66274;Laerm;58450;52.150;4.466;2023-01-05T02:30:55;58.41;43.67;76.35;;
66274;Laerm;58450;52.150;4.466;2023-01-05T02:33:40;60.20;46.48;77.37;;
66274;Laerm;58450;52.150;4.466;2023-01-05T02:36:19;59.99;43.84;78.44;;
66274;Laerm;58450;52.150;4.466;2023-01-05T02:38:57;56.23;43.45;70.86;;
66274;Laerm;58450;52.150;4.466;2023-01-05T02:41:35;56.10;43.45;73.81;;
66274;Laerm;58450;52.150;4.466;2023-01-05T02:44:07;57.47;43.52;73.13;;
66274;Laerm;58450;52.150;4.466;2023-01-05T02:46:36;61.02;44.94;80.15;;
66274;Laerm;58450;52.150;4.466;2023-01-05T02:49:05;59.02;43.39;79.22;;
66274;Laerm;58450;52.150;4.466;2023-01-05T02:51:38;56.05;44.92;72.89;;
66274;Laerm;58450;52.150;4.466;2023-01-05T02:54:10;57.79;41.46;77.31;;
66274;Laerm;58450;52.150;4.466;2023-01-05T02:56:43;57.02;41.89;74.85;;
66274;Laerm;58450;52.150;4.466;2023-01-05T02:59:23;54.98;43.17;72.30;;
66274;Laerm;58450;52.150;4.466;2023-01-05T03:01:58;53.20;39.65;72.05;;
66274;Laerm;58450;52.150;4.466;2023-01-05T03:04:32;53.58;40.91;74.60;;
66274;Laerm;58450;52.150;4.466;2023-01-05T03:07:08;56.32;41.27;77.48;;
66274;Laerm;58450;52.150;4.466;2023-01-05T03:09:40;60.73;43.81;78.61;;
66274;Laerm;58450;52.150;4.466;2023-01-05T03:12:18;52.52;41.44;74.64;;
66274;Laerm;58450;52.150;4.466;2023-01-05T03:15:11;57.41;41.08;75.96;;
66274;Laerm;58450;52.150;4.466;2023-01-05T03:17:49;52.93;42.03;69.20;;
66274;Laerm;58450;52.150;4.466;2023-01-05T03:20:21;59.86;43.14;80.36;;
66274;Laerm;58450;52.150;4.466;2023-01-05T03:22:52;51.45;40.01;73.62;;
66274;Laerm;58450;52.150;4.466;2023-01-05T03:25:40;49.73;41.83;65.99;;
66274;Laerm;58450;52.150;4.466;2023-01-05T03:28:29;56.74;42.33;71.27;;
66274;Laerm;58450;52.150;4.466;2023-01-05T03:31:28;56.99;42.25;76.72;;
66274;Laerm;58450;52.150;4.466;2023-01-05T03:34:27;55.19;43.22;74.29;;
66274;Laerm;58450;52.150;4.466;2023-01-05T03:37:20;51.19;40.08;68.36;;
66274;Laerm;58450;52.150;4.466;2023-01-05T03:39:50;52.95;40.58;68.32;;
66274;Laerm;58450;52.150;4.466;2023-01-05T03:42:19;57.20;43.13;77.07;;
66274;Laerm;58450;52.150;4.466;2023-01-05T03:44:49;56.49;43.01;73.25;;
66274;Laerm;58450;52.150;4.466;2023-01-05T03:47:16;61.33;46.80;85.78;;
66274;Laerm;58450;52.150;4.466;2023-01-05T03:49:45;54.99;41.53;72.24;;
66274;Laerm;58450;52.150;4.466;2023-01-05T03:52:13;56.16;40.67;76.95;;
66274;Laerm;58450;52.150;4.466;2023-01-05T03:54:40;57.09;43.63;75.48;;
66274;Laerm;58450;52.150;4.466;2023-01-05T03:57:08;56.81;42.70;75.72;;
66274;Laerm;58450;52.150;4.466;2023-01-05T03:59:35;63.56;45.20;86.87;;
66274;Laerm;58450;52.150;4.466;2023-01-05T04:02:03;55.12;42.27;70.16;;
66274;Laerm;58450;52.150;4.466;2023-01-05T04:04:30;54.06;42.32;70.70;;
66274;Laerm;58450;52.150;4.466;2023-01-05T04:06:59;56.48;42.51;74.02;;
66274;Laerm;58450;52.150;4.466;2023-01-05T04:09:27;55.91;41.80;82.10;;
66274;Laerm;58450;52.150;4.466;2023-01-05T04:11:54;59.92;43.27;82.57;;
66274;Laerm;58450;52.150;4.466;2023-01-05T04:14:22;53.96;43.09;67.43;;
66274;Laerm;58450;52.150;4.466;2023-01-05T04:16:49;55.50;44.23;73.26;;
66274;Laerm;58450;52.150;4.466;2023-01-05T04:19:17;53.28;44.06;73.15;;
66274;Laerm;58450;52.150;4.466;2023-01-05T04:21:45;53.52;42.89;71.81;;
66274;Laerm;58450;52.150;4.466;2023-01-05T04:24:14;56.18;44.84;74.14;;
66274;Laerm;58450;52.150;4.466;2023-01-05T04:26:41;56.70;43.09;74.55;;
66274;Laerm;58450;52.150;4.466;2023-01-05T04:29:09;55.63;43.02;72.34;;
66274;Laerm;58450;52.150;4.466;2023-01-05T04:31:37;56.49;45.04;70.80;;
66274;Laerm;58450;52.150;4.466;2023-01-05T04:34:05;55.56;43.03;79.74;;
66274;Laerm;58450;52.150;4.466;2023-01-05T04:36:32;52.77;42.63;71.06;;
66274;Laerm;58450;52.150;4.466;2023-01-05T04:39:00;56.25;46.10;75.44;;
66274;Laerm;58450;52.150;4.466;2023-01-05T04:41:29;61.15;42.64;80.74;;
66274;Laerm;58450;52.150;4.466;2023-01-05T04:43:57;56.88;44.81;73.52;;
66274;Laerm;58450;52.150;4.466;2023-01-05T04:46:24;56.00;42.96;71.45;;
66274;Laerm;58450;52.150;4.466;2023-01-05T04:48:52;55.57;45.02;71.11;;
66274;Laerm;58450;52.150;4.466;2023-01-05T04:51:19;58.40;43.59;76.33;;
66274;Laerm;58450;52.150;4.466;2023-01-05T04:53:47;53.48;42.17;69.88;;
66274;Laerm;58450;52.150;4.466;2023-01-05T04:56:15;53.05;42.80;69.58;;
66274;Laerm;58450;52.150;4.466;2023-01-05T04:58:44;52.13;42.23;75.81;;
66274;Laerm;58450;52.150;4.466;2023-01-05T05:01:12;56.83;44.56;74.10;;
66274;Laerm;58450;52.150;4.466;2023-01-05T05:03:39;53.02;44.01;72.09;;
66274;Laerm;58450;52.150;4.466;2023-01-05T05:06:07;52.83;40.94;69.71;;
66274;Laerm;58450;52.150;4.466;2023-01-05T05:08:35;54.56;44.19;69.95;;
66274;Laerm;58450;52.150;4.466;2023-01-05T05:11:03;57.04;41.08;74.55;;
66274;Laerm;58450;52.150;4.466;2023-01-05T05:13:31;56.86;43.57;68.55;;
66274;Laerm;58450;52.150;4.466;2023-01-05T05:16:00;58.27;44.25;80.45;;
66274;Laerm;58450;52.150;4.466;2023-01-05T05:18:28;60.10;45.47;76.88;;
66274;Laerm;58450;52.150;4.466;2023-01-05T05:20:55;55.10;42.49;73.57;;
66274;Laerm;58450;52.150;4.466;2023-01-05T05:23:23;58.72;42.60;78.41;;
66274;Laerm;58450;52.150;4.466;2023-01-05T05:25:51;54.51;45.16;72.84;;
66274;Laerm;58450;52.150;4.466;2023-01-05T05:28:20;58.29;43.96;82.79;;
66274;Laerm;58450;52.150;4.466;2023-01-05T05:30:48;58.92;44.89;85.15;;
66274;Laerm;58450;52.150;4.466;2023-01-05T05:33:17;53.85;43.82;71.45;;
66274;Laerm;58450;52.150;4.466;2023-01-05T05:35:45;58.56;44.99;79.49;;
66274;Laerm;58450;52.150;4.466;2023-01-05T05:38:12;58.03;46.40;75.13;;
66274;Laerm;58450;52.150;4.466;2023-01-05T05:40:40;57.52;45.63;80.73;;
66274;Laerm;58450;52.150;4.466;2023-01-05T05:43:08;59.27;45.02;74.09;;
66274;Laerm;58450;52.150;4.466;2023-01-05T05:45:36;57.66;46.82;80.48;;
66274;Laerm;58450;52.150;4.466;2023-01-05T05:48:03;57.50;47.22;69.89;;
66274;Laerm;58450;52.150;4.466;2023-01-05T05:50:33;56.41;44.96;76.43;;
66274;Laerm;58450;52.150;4.466;2023-01-05T05:53:00;59.94;45.48;81.37;;
66274;Laerm;58450;52.150;4.466;2023-01-05T05:55:28;53.10;43.17;72.78;;
66274;Laerm;58450;52.150;4.466;2023-01-05T05:57:55;51.66;43.08;70.51;;
66274;Laerm;58450;52.150;4.466;2023-01-05T06:00:23;52.87;44.57;72.52;;
66274;Laerm;58450;52.150;4.466;2023-01-05T06:02:51;53.32;44.63;73.71;;
66274;Laerm;58450;52.150;4.466;2023-01-05T06:05:18;54.62;44.89;80.73;;
66274;Laerm;58450;52.150;4.466;2023-01-05T06:07:47;56.55;44.19;74.93;;
66274;Laerm;58450;52.150;4.466;2023-01-05T06:10:15;55.37;44.13;68.73;;
66274;Laerm;58450;52.150;4.466;2023-01-05T06:12:42;55.62;44.02;71.44;;
66274;Laerm;58450;52.150;4.466;2023-01-05T06:15:10;55.65;45.79;71.50;;
66274;Laerm;58450;52.150;4.466;2023-01-05T06:17:38;54.18;44.59;70.41;;
66274;Laerm;58450;52.150;4.466;2023-01-05T06:20:07;53.27;44.43;65.92;;
66274;Laerm;58450;52.150;4.466;2023-01-05T06:22:35;54.33;45.95;67.40;;
66274;Laerm;58450;52.150;4.466;2023-01-05T06:25:05;54.05;44.64;71.28;;
66274;Laerm;58450;52.150;4.466;2023-01-05T06:27:33;52.96;43.72;71.39;;
66274;Laerm;58450;52.150;4.466;2023-01-05T06:30:01;51.99;44.73;65.55;;
66274;Laerm;58450;52.150;4.466;2023-01-05T06:32:29;54.09;45.76;74.73;;
66274;Laerm;58450;52.150;4.466;2023-01-05T06:34:56;51.06;45.97;64.54;;
66274;Laerm;58450;52.150;4.466;2023-01-05T06:37:24;58.22;45.94;74.66;;
66274;Laerm;58450;52.150;4.466;2023-01-05T06:39:51;54.31;47.98;67.33;;
66274;Laerm;58450;52.150;4.466;2023-01-05T06:42:22;54.67;46.33;70.17;;
66274;Laerm;58450;52.150;4.466;2023-01-05T06:44:49;59.22;48.87;71.77;;
66274;Laerm;58450;52.150;4.466;2023-01-05T06:47:17;58.35;48.37;80.21;;
66274;Laerm;58450;52.150;4.466;2023-01-05T06:49:45;54.83;47.68;67.08;;
66274;Laerm;58450;52.150;4.466;2023-01-05T06:52:13;58.74;47.44;82.64;;
66274;Laerm;58450;52.150;4.466;2023-01-05T06:54:40;57.53;46.88;69.73;;
66274;Laerm;58450;52.150;4.466;2023-01-05T06:57:08;54.51;48.25;67.57;;
66274;Laerm;58450;52.150;4.466;2023-01-05T06:59:38;55.29;45.80;71.34;;
66274;Laerm;58450;52.150;4.466;2023-01-05T07:02:12;56.15;45.76;80.81;;
66274;Laerm;58450;52.150;4.466;2023-01-05T07:04:40;52.95;46.34;65.87;;
66274;Laerm;58450;52.150;4.466;2023-01-05T07:07:10;57.11;47.24;76.99;;
66274;Laerm;58450;52.150;4.466;2023-01-05T07:09:38;57.93;46.30;73.75;;
66274;Laerm;58450;52.150;4.466;2023-01-05T07:12:06;57.14;45.65;79.43;;
66274;Laerm;58450;52.150;4.466;2023-01-05T07:14:34;57.77;46.99;69.03;;
66274;Laerm;58450;52.150;4.466;2023-01-05T07:17:04;56.12;47.05;71.94;;
66274;Laerm;58450;52.150;4.466;2023-01-05T07:19:32;60.36;49.05;77.97;;
66274;Laerm;58450;52.150;4.466;2023-01-05T07:21:59;53.79;46.67;74.19;;
66274;Laerm;58450;52.150;4.466;2023-01-05T07:24:27;56.09;46.91;69.82;;
66274;Laerm;58450;52.150;4.466;2023-01-05T07:26:54;53.78;46.83;65.84;;
66274;Laerm;58450;52.150;4.466;2023-01-05T07:29:24;53.56;46.56;70.79;;
66274;Laerm;58450;52.150;4.466;2023-01-05T07:31:52;52.26;46.47;69.33;;
66274;Laerm;58450;52.150;4.466;2023-01-05T07:34:22;50.95;46.63;69.27;;
66274;Laerm;58450;52.150;4.466;2023-01-05T07:36:50;59.23;48.12;74.59;;
66274;Laerm;58450;52.150;4.466;2023-01-05T07:39:18;57.94;47.80;74.46;;
66274;Laerm;58450;52.150;4.466;2023-01-05T07:41:45;52.84;46.55;68.51;;
66274;Laerm;58450;52.150;4.466;2023-01-05T07:44:13;54.90;46.99;66.71;;
66274;Laerm;58450;52.150;4.466;2023-01-05T07:46:40;55.18;48.68;66.35;;
66274;Laerm;58450;52.150;4.466;2023-01-05T07:49:08;56.62;48.03;69.83;;
66274;Laerm;58450;52.150;4.466;2023-01-05T07:51:37;56.54;46.94;69.74;;
66274;Laerm;58450;52.150;4.466;2023-01-05T07:54:05;58.45;46.73;72.38;;
66274;Laerm;58450;52.150;4.466;2023-01-05T07:56:32;55.13;47.16;65.57;;
66274;Laerm;58450;52.150;4.466;2023-01-05T07:59:00;51.49;46.75;62.79;;
66274;Laerm;58450;52.150;4.466;2023-01-05T08:01:27;51.95;46.11;67.94;;
66274;Laerm;58450;52.150;4.466;2023-01-05T08:03:55;51.13;46.09;61.11;;
66274;Laerm;58450;52.150;4.466;2023-01-05T08:06:23;52.40;46.06;65.24;;
66274;Laerm;58450;52.150;4.466;2023-01-05T08:08:51;56.36;46.83;70.03;;
66274;Laerm;58450;52.150;4.466;2023-01-05T08:11:19;51.85;46.21;65.84;;
66274;Laerm;58450;52.150;4.466;2023-01-05T08:13:47;56.18;45.34;67.38;;
66274;Laerm;58450;52.150;4.466;2023-01-05T08:16:29;56.62;46.50;71.50;;
66274;Laerm;58450;52.150;4.466;2023-01-05T08:18:58;55.89;46.96;66.67;;
66274;Laerm;58450;52.150;4.466;2023-01-05T08:21:26;51.82;46.26;65.76;;
66274;Laerm;58450;52.150;4.466;2023-01-05T08:23:55;53.39;46.53;65.63;;
66274;Laerm;58450;52.150;4.466;2023-01-05T08:26:25;54.71;46.26;67.69;;
66274;Laerm;58450;52.150;4.466;2023-01-05T08:28:52;51.41;44.90;69.16;;
66274;Laerm;58450;52.150;4.466;2023-01-05T08:31:23;52.86;46.16;69.15;;
66274;Laerm;58450;52.150;4.466;2023-01-05T08:33:54;52.04;45.92;68.26;;
66274;Laerm;58450;52.150;4.466;2023-01-05T08:36:23;54.41;45.40;65.26;;
66274;Laerm;58450;52.150;4.466;2023-01-05T08:38:51;57.10;46.18;76.14;;
66274;Laerm;58450;52.150;4.466;2023-01-05T08:41:22;55.57;46.31;71.45;;
66274;Laerm;58450;52.150;4.466;2023-01-05T08:43:52;56.89;46.84;73.84;;
66274;Laerm;58450;52.150;4.466;2023-01-05T08:46:22;51.44;45.94;67.80;;
66274;Laerm;58450;52.150;4.466;2023-01-05T08:48:53;54.55;47.49;66.86;;
66274;Laerm;58450;52.150;4.466;2023-01-05T08:51:21;54.19;46.45;71.43;;
66274;Laerm;58450;52.150;4.466;2023-01-05T08:53:49;57.87;46.53;77.01;;
66274;Laerm;58450;52.150;4.466;2023-01-05T08:56:17;54.34;46.04;73.29;;
66274;Laerm;58450;52.150;4.466;2023-01-05T08:58:46;52.12;46.34;71.58;;
66274;Laerm;58450;52.150;4.466;2023-01-05T09:01:16;53.79;46.49;69.85;;
66274;Laerm;58450;52.150;4.466;2023-01-05T09:03:44;51.59;45.49;73.59;;
66274;Laerm;58450;52.150;4.466;2023-01-05T09:06:12;52.16;44.16;67.15;;
66274;Laerm;58450;52.150;4.466;2023-01-05T09:08:42;56.93;46.09;72.17;;
66274;Laerm;58450;52.150;4.466;2023-01-05T09:11:12;52.18;45.84;67.40;;
66274;Laerm;58450;52.150;4.466;2023-01-05T09:13:45;54.12;46.27;67.27;;
66274;Laerm;58450;52.150;4.466;2023-01-05T09:16:16;58.59;47.07;74.69;;
66274;Laerm;58450;52.150;4.466;2023-01-05T09:18:45;55.27;46.41;74.79;;
66274;Laerm;58450;52.150;4.466;2023-01-05T09:21:13;54.31;44.40;66.33;;
66274;Laerm;58450;52.150;4.466;2023-01-05T09:23:42;55.73;47.02;71.35;;
66274;Laerm;58450;52.150;4.466;2023-01-05T09:26:12;54.92;46.40;67.77;;
66274;Laerm;58450;52.150;4.466;2023-01-05T09:28:41;52.13;44.87;69.49;;
66274;Laerm;58450;52.150;4.466;2023-01-05T09:31:12;54.24;46.91;76.72;;
66274;Laerm;58450;52.150;4.466;2023-01-05T09:33:41;53.49;46.03;67.14;;
66274;Laerm;58450;52.150;4.466;2023-01-05T09:36:10;52.66;47.07;67.99;;
66274;Laerm;58450;52.150;4.466;2023-01-05T09:38:39;55.82;45.96;75.92;;
66274;Laerm;58450;52.150;4.466;2023-01-05T09:41:16;52.46;45.60;66.72;;
66274;Laerm;58450;52.150;4.466;2023-01-05T09:43:50;55.95;45.47;71.71;;
66274;Laerm;58450;52.150;4.466;2023-01-05T09:46:26;53.67;47.67;72.07;;
66274;Laerm;58450;52.150;4.466;2023-01-05T09:49:00;57.61;47.53;75.57;;
66274;Laerm;58450;52.150;4.466;2023-01-05T09:51:29;55.88;46.86;76.72;;
66274;Laerm;58450;52.150;4.466;2023-01-05T09:53:59;57.48;47.69;69.54;;
66274;Laerm;58450;52.150;4.466;2023-01-05T09:56:29;55.62;46.82;73.84;;
66274;Laerm;58450;52.150;4.466;2023-01-05T09:59:06;53.07;46.89;69.10;;
66274;Laerm;58450;52.150;4.466;2023-01-05T10:01:40;53.45;46.24;75.99;;
66274;Laerm;58450;52.150;4.466;2023-01-05T10:04:14;51.16;45.55;61.27;;
66274;Laerm;58450;52.150;4.466;2023-01-05T10:06:48;51.89;46.42;69.98;;
66274;Laerm;58450;52.150;4.466;2023-01-05T10:09:21;55.04;46.60;72.48;;
66274;Laerm;58450;52.150;4.466;2023-01-05T10:11:57;51.84;45.39;68.08;;
66274;Laerm;58450;52.150;4.466;2023-01-05T10:14:48;52.80;45.25;61.85;;
66274;Laerm;58450;52.150;4.466;2023-01-05T10:17:21;56.66;45.84;74.63;;
66274;Laerm;58450;52.150;4.466;2023-01-05T10:19:49;53.42;45.15;70.59;;
66274;Laerm;58450;52.150;4.466;2023-01-05T10:22:40;53.67;45.14;66.10;;
66274;Laerm;58450;52.150;4.466;2023-01-05T10:25:20;50.65;45.86;65.11;;
66274;Laerm;58450;52.150;4.466;2023-01-05T10:28:02;52.20;45.43;70.17;;
66274;Laerm;58450;52.150;4.466;2023-01-05T10:30:47;54.77;44.91;68.50;;
66274;Laerm;58450;52.150;4.466;2023-01-05T10:33:37;51.43;44.28;62.94;;
66274;Laerm;58450;52.150;4.466;2023-01-05T10:36:28;50.50;44.34;61.66;;
66274;Laerm;58450;52.150;4.466;2023-01-05T10:39:09;53.46;45.42;64.49;;
66274;Laerm;58450;52.150;4.466;2023-01-05T10:41:51;55.34;47.22;70.09;;
66274;Laerm;58450;52.150;4.466;2023-01-05T10:44:53;54.92;45.09;72.83;;
66274;Laerm;58450;52.150;4.466;2023-01-05T10:47:24;56.18;45.17;68.49;;
66274;Laerm;58450;52.150;4.466;2023-01-05T10:49:55;53.69;45.81;65.99;;
66274;Laerm;58450;52.150;4.466;2023-01-05T10:52:22;56.02;48.31;74.53;;
66274;Laerm;58450;52.150;4.466;2023-01-05T10:54:56;57.56;45.86;72.87;;
66274;Laerm;58450;52.150;4.466;2023-01-05T10:57:37;54.15;47.24;63.60;;
66274;Laerm;58450;52.150;4.466;2023-01-05T11:00:13;56.69;50.99;63.02;;
66274;Laerm;58450;52.150;4.466;2023-01-05T11:02:48;55.01;49.89;63.96;;
66274;Laerm;58450;52.150;4.466;2023-01-05T11:05:29;54.38;48.37;69.74;;
66274;Laerm;58450;52.150;4.466;2023-01-05T11:08:01;54.73;48.02;68.92;;
66274;Laerm;58450;52.150;4.466;2023-01-05T11:10:33;52.66;43.30;63.04;;
66274;Laerm;58450;52.150;4.466;2023-01-05T11:13:05;56.02;46.86;71.34;;
66274;Laerm;58450;52.150;4.466;2023-01-05T11:15:40;49.48;44.67;61.65;;
66274;Laerm;58450;52.150;4.466;2023-01-05T11:18:25;53.90;44.67;66.07;;
66274;Laerm;58450;52.150;4.466;2023-01-05T11:21:13;50.67;45.48;64.86;;
66274;Laerm;58450;52.150;4.466;2023-01-05T11:23:44;54.76;45.10;68.24;;
66274;Laerm;58450;52.150;4.466;2023-01-05T11:26:26;53.11;47.01;67.64;;
66274;Laerm;58450;52.150;4.466;2023-01-05T11:29:10;54.41;46.19;66.64;;
66274;Laerm;58450;52.150;4.466;2023-01-05T11:31:44;49.09;44.17;57.75;;
66274;Laerm;58450;52.150;4.466;2023-01-05T11:34:27;50.30;44.00;64.67;;
66274;Laerm;58450;52.150;4.466;2023-01-05T11:36:59;50.63;44.35;68.51;;
66274;Laerm;58450;52.150;4.466;2023-01-05T11:39:32;54.00;45.90;66.05;;
66274;Laerm;58450;52.150;4.466;2023-01-05T11:42:08;48.95;43.72;54.99;;
66274;Laerm;58450;52.150;4.466;2023-01-05T11:44:38;56.07;44.07;70.97;;
66274;Laerm;58450;52.150;4.466;2023-01-05T11:47:08;52.48;44.42;66.11;;
66274;Laerm;58450;52.150;4.466;2023-01-05T11:49:43;52.40;44.44;62.78;;
66274;Laerm;58450;52.150;4.466;2023-01-05T11:52:27;57.15;46.47;74.27;;
66274;Laerm;58450;52.150;4.466;2023-01-05T11:54:54;52.28;46.79;61.12;;
66274;Laerm;58450;52.150;4.466;2023-01-05T11:57:22;51.89;44.08;64.10;;
66274;Laerm;58450;52.150;4.466;2023-01-05T11:59:50;49.86;43.75;62.95;;
66274;Laerm;58450;52.150;4.466;2023-01-05T12:03:02;49.42;43.71;56.96;;
66274;Laerm;58450;52.150;4.466;2023-01-05T12:05:44;53.14;45.85;63.21;;
66274;Laerm;58450;52.150;4.466;2023-01-05T12:08:20;54.13;45.36;65.98;;
66274;Laerm;58450;52.150;4.466;2023-01-05T12:11:09;52.78;44.90;66.63;;
66274;Laerm;58450;52.150;4.466;2023-01-05T12:14:03;53.31;45.12;67.19;;
66274;Laerm;58450;52.150;4.466;2023-01-05T12:16:44;49.48;43.46;60.25;;
66274;Laerm;58450;52.150;4.466;2023-01-05T12:19:47;53.48;45.59;65.83;;
66274;Laerm;58450;52.150;4.466;2023-01-05T12:22:58;53.18;45.35;67.61;;
66274;Laerm;58450;52.150;4.466;2023-01-05T12:25:44;53.41;45.40;68.20;;
66274;Laerm;58450;52.150;4.466;2023-01-05T12:28:37;55.57;45.04;72.32;;
66274;Laerm;58450;52.150;4.466;2023-01-05T12:31:28;50.70;45.67;62.07;;
66274;Laerm;58450;52.150;4.466;2023-01-05T12:34:21;49.84;44.67;65.40;;
66274;Laerm;58450;52.150;4.466;2023-01-05T12:37:14;50.87;43.62;63.48;;
66274;Laerm;58450;52.150;4.466;2023-01-05T12:42:59;56.17;46.40;73.86;;
66274;Laerm;58450;52.150;4.466;2023-01-05T12:45:56;51.30;45.23;63.32;;
66274;Laerm;58450;52.150;4.466;2023-01-05T12:48:34;53.88;44.12;71.54;;
66274;Laerm;58450;52.150;4.466;2023-01-05T12:51:11;49.94;44.04;65.13;;
66274;Laerm;58450;52.150;4.466;2023-01-05T12:53:50;55.31;43.11;70.13;;
66274;Laerm;58450;52.150;4.466;2023-01-05T12:56:29;52.57;44.91;69.69;;
66274;Laerm;58450;52.150;4.466;2023-01-05T12:59:17;49.54;44.08;61.50;;
66274;Laerm;58450;52.150;4.466;2023-01-05T13:01:57;49.81;43.17;67.26;;
66274;Laerm;58450;52.150;4.466;2023-01-05T13:04:47;55.32;44.50;70.49;;
66274;Laerm;58450;52.150;4.466;2023-01-05T13:07:30;55.23;45.49;67.53;;
66274;Laerm;58450;52.150;4.466;2023-01-05T13:10:06;52.63;47.44;63.09;;
66274;Laerm;58450;52.150;4.466;2023-01-05T13:12:40;51.50;46.60;60.95;;
66274;Laerm;58450;52.150;4.466;2023-01-05T13:15:18;51.52;45.29;62.17;;
66274;Laerm;58450;52.150;4.466;2023-01-05T13:17:50;51.55;43.07;68.06;;
66274;Laerm;58450;52.150;4.466;2023-01-05T13:20:35;53.55;45.53;72.10;;
66274;Laerm;58450;52.150;4.466;2023-01-05T13:23:14;53.39;44.78;64.24;;
66274;Laerm;58450;52.150;4.466;2023-01-05T13:25:50;53.72;44.46;63.23;;
66274;Laerm;58450;52.150;4.466;2023-01-05T13:28:22;54.03;48.81;64.13;;
66274;Laerm;58450;52.150;4.466;2023-01-05T13:31:23;59.28;46.18;83.95;;
66274;Laerm;58450;52.150;4.466;2023-01-05T13:34:29;56.90;44.67;87.81;;
66274;Laerm;58450;52.150;4.466;2023-01-05T13:37:23;55.59;45.16;79.23;;
66274;Laerm;58450;52.150;4.466;2023-01-05T13:40:19;57.59;44.58;82.51;;
66274;Laerm;58450;52.150;4.466;2023-01-05T13:43:17;55.32;44.89;79.88;;
66274;Laerm;58450;52.150;4.466;2023-01-05T13:46:20;51.28;43.79;78.16;;
66274;Laerm;58450;52.150;4.466;2023-01-05T13:52:13;49.16;43.27;67.63;;
66274;Laerm;58450;52.150;4.466;2023-01-05T13:54:47;50.70;43.39;67.97;;
66274;Laerm;58450;52.150;4.466;2023-01-05T13:57:21;48.37;42.39;61.22;;
66274;Laerm;58450;52.150;4.466;2023-01-05T13:59:53;49.41;42.01;69.45;;
66274;Laerm;58450;52.150;4.466;2023-01-05T14:02:31;49.33;42.42;60.28;;
66274;Laerm;58450;52.150;4.466;2023-01-05T14:05:14;52.37;42.90;62.49;;
66274;Laerm;58450;52.150;4.466;2023-01-05T14:07:43;54.64;43.25;66.57;;
66274;Laerm;58450;52.150;4.466;2023-01-05T14:10:21;49.16;43.83;58.16;;
66274;Laerm;58450;52.150;4.466;2023-01-05T14:12:50;49.26;44.46;70.08;;
66274;Laerm;58450;52.150;4.466;2023-01-05T14:15:39;53.08;44.96;66.72;;
66274;Laerm;58450;52.150;4.466;2023-01-05T14:18:10;54.16;46.15;72.30;;
66274;Laerm;58450;52.150;4.466;2023-01-05T14:20:42;49.30;43.93;63.73;;
66274;Laerm;58450;52.150;4.466;2023-01-05T14:23:55;51.24;44.73;72.38;;
66274;Laerm;58450;52.150;4.466;2023-01-05T14:27:06;49.47;44.07;58.95;;
66274;Laerm;58450;52.150;4.466;2023-01-05T14:30:19;49.24;43.75;67.70;;
66274;Laerm;58450;52.150;4.466;2023-01-05T14:32:52;50.27;43.21;81.59;;